createdAt,value
2023-01-03T00:00:01.772Z,4.20
2023-01-03T00:01:02.646Z,15.80
2023-01-03T00:02:03.595Z,23.10
2023-01-03T00:03:04.462Z,18.30
2023-01-03T00:04:05.456Z,23.60
2023-01-03T00:05:05.877Z,4.50
2023-01-03T00:06:06.751Z,11.10
2023-01-03T00:07:07.632Z,8.80
2023-01-03T00:08:08.503Z,13.20
2023-01-03T00:09:09.405Z,20.60
2023-01-03T00:10:10.296Z,16.70
2023-01-03T00:11:11.173Z,17.30
2023-01-03T00:12:12.058Z,15.90
2023-01-03T00:13:12.911Z,14.70
2023-01-03T00:14:13.788Z,20.00
2023-01-03T00:15:14.671Z,20.20
2023-01-03T00:16:15.660Z,30.60
2023-01-03T00:17:16.554Z,23.00
2023-01-03T00:18:17.417Z,8.40
2023-01-03T00:19:18.307Z,5.90
2023-01-03T00:20:19.175Z,6.60
2023-01-03T00:21:20.069Z,2.40
2023-01-03T00:22:20.929Z,1.70
2023-01-03T00:23:21.806Z,1.50
2023-01-03T00:24:22.697Z,1.50
2023-01-03T00:25:23.596Z,1.30
2023-01-03T00:26:24.452Z,1.20
2023-01-03T00:27:25.339Z,1.10
2023-01-03T00:28:26.208Z,1.10
2023-01-03T00:29:27.101Z,2.60
2023-01-03T00:30:28.062Z,1.30
2023-01-03T00:31:28.998Z,1.00
2023-01-03T00:32:29.858Z,1.30
2023-01-03T00:33:30.757Z,1.10
2023-01-03T00:34:31.643Z,1.20
2023-01-03T00:35:32.540Z,1.30
2023-01-03T00:36:33.444Z,1.00
2023-01-03T00:37:34.335Z,1.30
2023-01-03T00:38:35.220Z,1.40
2023-01-03T00:39:36.150Z,1.10
2023-01-03T00:40:37.079Z,1.00
2023-01-03T00:41:37.961Z,1.00
2023-01-03T00:42:38.852Z,1.10
2023-01-03T00:43:39.743Z,1.20
2023-01-03T00:44:40.625Z,1.20
2023-01-03T00:45:41.658Z,1.00
2023-01-03T00:46:42.051Z,1.10
2023-01-03T00:47:42.968Z,1.10
2023-01-03T00:48:43.863Z,1.20
2023-01-03T00:49:44.756Z,1.10
2023-01-03T00:50:45.625Z,1.20
2023-01-03T00:51:46.506Z,1.60
2023-01-03T00:52:47.384Z,1.10
2023-01-03T00:53:48.278Z,1.20
2023-01-03T00:54:49.142Z,1.20
2023-01-03T00:55:50.053Z,0.90
2023-01-03T00:56:50.897Z,1.10
2023-01-03T00:57:51.768Z,1.10
2023-01-03T00:58:52.647Z,1.20
2023-01-03T00:59:53.730Z,1.00
2023-01-03T01:00:54.106Z,1.00
2023-01-03T01:01:55.091Z,1.30
2023-01-03T01:02:55.686Z,1.20
2023-01-03T01:03:56.273Z,1.20
2023-01-03T01:04:56.666Z,0.90
2023-01-03T01:05:57.534Z,1.10
2023-01-03T01:06:58.431Z,1.10
2023-01-03T01:07:59.287Z,1.10
2023-01-03T01:09:00.178Z,1.00
2023-01-03T01:10:01.064Z,1.10
2023-01-03T01:11:02.116Z,1.10
2023-01-03T01:12:02.452Z,1.20
2023-01-03T01:13:03.356Z,1.30
2023-01-03T01:14:04.200Z,1.10
2023-01-03T01:15:05.092Z,1.10
2023-01-03T01:16:06.051Z,1.10
2023-01-03T01:17:06.883Z,1.50
2023-01-03T01:18:07.765Z,1.30
2023-01-03T01:19:08.638Z,1.30
2023-01-03T01:20:09.556Z,1.30
2023-01-03T01:21:10.409Z,1.00
2023-01-03T01:22:11.304Z,1.10
2023-01-03T01:23:12.164Z,1.10
2023-01-03T01:24:17.761Z,1.20
2023-01-03T01:25:14.841Z,1.00
2023-01-03T01:26:14.726Z,1.10
2023-01-03T01:27:15.574Z,1.00
2023-01-03T01:28:16.456Z,0.90
2023-01-03T01:29:17.388Z,1.40
2023-01-03T01:30:18.231Z,1.20
2023-01-03T01:31:19.162Z,1.10
2023-01-03T01:32:19.991Z,1.40
2023-01-03T01:33:20.865Z,1.70
2023-01-03T01:34:21.744Z,2.30
2023-01-03T01:35:22.628Z,2.40
2023-01-03T01:36:23.514Z,2.40
2023-01-03T01:37:24.391Z,2.70
2023-01-03T01:38:25.264Z,2.30
2023-01-03T01:39:26.156Z,1.60
2023-01-03T01:40:27.064Z,1.40
2023-01-03T01:41:27.983Z,1.70
2023-01-03T01:42:30.876Z,1.60
2023-01-03T01:43:29.585Z,1.40
2023-01-03T01:44:30.460Z,1.30
2023-01-03T01:45:31.345Z,1.10
2023-01-03T01:46:32.365Z,1.00
2023-01-03T01:47:32.735Z,1.00
2023-01-03T01:48:33.647Z,1.10
2023-01-03T01:49:34.533Z,1.10
2023-01-03T01:50:35.424Z,0.80
2023-01-03T01:51:36.296Z,0.80
2023-01-03T01:52:37.183Z,1.00
2023-01-03T01:53:38.053Z,1.10
2023-01-03T01:54:38.963Z,0.90
2023-01-03T01:55:39.837Z,0.90
2023-01-03T01:56:40.874Z,0.80
2023-01-03T01:57:41.698Z,1.10
2023-01-03T01:58:42.594Z,0.80
2023-01-03T01:59:43.475Z,0.80
2023-01-03T02:00:44.379Z,1.10
2023-01-03T02:01:45.477Z,1.00
2023-01-03T02:02:46.182Z,1.00
2023-01-03T02:03:46.698Z,1.00
2023-01-03T02:04:47.545Z,1.00
2023-01-03T02:05:48.428Z,1.00
2023-01-03T02:06:49.320Z,0.90
2023-01-03T02:07:50.180Z,0.90
2023-01-03T02:08:51.059Z,1.00
2023-01-03T02:09:51.931Z,1.10
2023-01-03T02:10:52.820Z,1.00
2023-01-03T02:11:53.713Z,1.10
2023-01-03T02:12:54.574Z,1.00
2023-01-03T02:13:55.457Z,1.10
2023-01-03T02:14:56.338Z,1.00
2023-01-03T02:15:57.315Z,1.00
2023-01-03T02:16:58.187Z,1.00
2023-01-03T02:17:59.063Z,0.90
2023-01-03T02:18:59.965Z,0.80
2023-01-03T02:20:00.823Z,1.00
2023-01-03T02:21:01.714Z,0.80
2023-01-03T02:22:02.595Z,0.80
2023-01-03T02:23:03.492Z,1.00
2023-01-03T02:24:04.353Z,0.80
2023-01-03T02:25:05.231Z,0.90
2023-01-03T02:26:06.239Z,0.90
2023-01-03T02:27:07.136Z,0.80
2023-01-03T02:28:07.987Z,1.00
2023-01-03T02:29:08.867Z,1.00
2023-01-03T02:30:09.737Z,1.10
2023-01-03T02:31:10.681Z,1.10
2023-01-03T02:32:11.544Z,1.20
2023-01-03T02:33:12.425Z,1.00
2023-01-03T02:34:13.293Z,1.10
2023-01-03T02:35:14.174Z,1.00
2023-01-03T02:36:15.059Z,0.80
2023-01-03T02:37:15.937Z,1.00
2023-01-03T02:38:16.822Z,0.80
2023-01-03T02:39:23.381Z,1.00
2023-01-03T02:40:19.470Z,0.80
2023-01-03T02:41:19.356Z,0.90
2023-01-03T02:42:20.251Z,1.00
2023-01-03T02:43:21.111Z,0.70
2023-01-03T02:44:21.983Z,0.90
2023-01-03T02:45:22.867Z,0.80
2023-01-03T02:46:23.845Z,0.80
2023-01-03T02:47:24.227Z,0.80
2023-01-03T02:48:25.099Z,1.00
2023-01-03T02:49:25.980Z,0.90
2023-01-03T02:50:26.852Z,0.90
2023-01-03T02:51:27.743Z,0.90
2023-01-03T02:52:28.614Z,0.80
2023-01-03T02:53:29.494Z,1.00
2023-01-03T02:54:30.378Z,0.80
2023-01-03T02:55:31.262Z,0.90
2023-01-03T02:56:32.154Z,0.90
2023-01-03T02:57:33.065Z,0.80
2023-01-03T02:58:33.916Z,0.80
2023-01-03T02:59:34.787Z,0.90
2023-01-03T03:00:35.670Z,0.90
2023-01-03T03:01:36.743Z,0.90
2023-01-03T03:02:37.335Z,0.90
2023-01-03T03:03:37.938Z,0.90
2023-01-03T03:04:38.344Z,0.90
2023-01-03T03:05:39.217Z,1.10
2023-01-03T03:06:40.109Z,1.00
2023-01-03T03:07:40.978Z,1.00
2023-01-03T03:08:41.852Z,1.10
2023-01-03T03:09:42.725Z,1.40
2023-01-03T03:10:43.607Z,1.10
2023-01-03T03:11:44.490Z,1.20
2023-01-03T03:12:45.393Z,1.20
2023-01-03T03:13:46.243Z,1.30
2023-01-03T03:14:47.125Z,1.40
2023-01-03T03:15:48.049Z,1.20
2023-01-03T03:16:48.906Z,1.40
2023-01-03T03:17:49.760Z,1.80
2023-01-03T03:18:50.643Z,1.30
2023-01-03T03:19:51.518Z,1.40
2023-01-03T03:20:52.408Z,1.20
2023-01-03T03:21:53.296Z,1.20
2023-01-03T03:22:54.188Z,1.00
2023-01-03T03:23:55.057Z,1.00
2023-01-03T03:24:55.937Z,1.00
2023-01-03T03:25:56.815Z,1.10
2023-01-03T03:26:57.704Z,1.10
2023-01-03T03:27:58.595Z,1.10
2023-01-03T03:28:59.455Z,1.20
2023-01-03T03:30:00.345Z,1.00
2023-01-03T03:31:01.272Z,1.10
2023-01-03T03:32:02.117Z,1.10
2023-01-03T03:33:03.012Z,0.90
2023-01-03T03:34:03.915Z,1.10
2023-01-03T03:35:04.813Z,1.10
2023-01-03T03:36:05.720Z,1.00
2023-01-03T03:37:06.623Z,1.10
2023-01-03T03:38:07.508Z,1.00
2023-01-03T03:39:08.386Z,1.10
2023-01-03T03:40:09.264Z,1.00
2023-01-03T03:41:10.139Z,1.10
2023-01-03T03:42:11.020Z,0.90
2023-01-03T03:43:11.925Z,0.90
2023-01-03T03:44:12.780Z,1.00
2023-01-03T03:45:13.652Z,0.90
2023-01-03T03:46:14.550Z,1.10
2023-01-03T03:47:15.514Z,0.90
2023-01-03T03:48:16.418Z,1.00
2023-01-03T03:49:17.269Z,0.90
2023-01-03T03:50:18.154Z,0.80
2023-01-03T03:51:19.035Z,1.00
2023-01-03T03:52:19.919Z,0.90
2023-01-03T03:53:20.797Z,1.00
2023-01-03T03:54:21.672Z,0.90
2023-01-03T03:55:22.550Z,1.10
2023-01-03T03:56:23.425Z,0.90
2023-01-03T03:57:24.305Z,1.00
2023-01-03T03:58:25.219Z,1.00
2023-01-03T03:59:26.068Z,1.20
2023-01-03T04:00:26.942Z,0.90
2023-01-03T04:01:27.883Z,1.00
2023-01-03T04:02:28.962Z,0.90
2023-01-03T04:03:29.395Z,1.00
2023-01-03T04:04:30.217Z,0.80
2023-01-03T04:05:31.098Z,0.90
2023-01-03T04:06:31.981Z,0.90
2023-01-03T04:07:32.872Z,0.90
2023-01-03T04:08:33.745Z,1.10
2023-01-03T04:09:34.640Z,1.00
2023-01-03T04:10:37.867Z,1.00
2023-01-03T04:11:36.130Z,0.90
2023-01-03T04:12:37.013Z,0.80
2023-01-03T04:13:37.918Z,1.10
2023-01-03T04:14:38.777Z,1.10
2023-01-03T04:15:39.658Z,1.20
2023-01-03T04:16:40.567Z,1.00
2023-01-03T04:17:41.499Z,1.10
2023-01-03T04:18:42.363Z,0.90
2023-01-03T04:19:43.246Z,1.00
2023-01-03T04:20:44.118Z,1.20
2023-01-03T04:21:45.014Z,0.80
2023-01-03T04:22:45.893Z,1.00
2023-01-03T04:23:46.774Z,0.90
2023-01-03T04:24:47.693Z,1.00
2023-01-03T04:25:48.597Z,0.90
2023-01-03T04:26:49.491Z,1.20
2023-01-03T04:27:50.390Z,0.80
2023-01-03T04:28:51.285Z,0.90
2023-01-03T04:29:52.158Z,1.10
2023-01-03T04:30:53.065Z,1.00
2023-01-03T04:31:53.992Z,1.00
2023-01-03T04:32:54.866Z,0.90
2023-01-03T04:33:55.751Z,0.90
2023-01-03T04:34:56.630Z,1.00
2023-01-03T04:35:57.511Z,1.20
2023-01-03T04:36:58.379Z,0.80
2023-01-03T04:37:59.282Z,1.10
2023-01-03T04:39:00.159Z,0.90
2023-01-03T04:40:01.040Z,0.90
2023-01-03T04:41:01.926Z,0.90
2023-01-03T04:42:02.794Z,0.80
2023-01-03T04:43:03.686Z,1.00
2023-01-03T04:44:04.803Z,0.80
2023-01-03T04:45:05.273Z,1.00
2023-01-03T04:46:06.269Z,0.80
2023-01-03T04:47:07.135Z,0.90
2023-01-03T04:48:08.029Z,1.00
2023-01-03T04:49:08.900Z,1.00
2023-01-03T04:50:09.777Z,0.90
2023-01-03T04:51:10.660Z,0.70
2023-01-03T04:52:11.534Z,1.00
2023-01-03T04:53:12.427Z,0.90
2023-01-03T04:54:13.307Z,0.70
2023-01-03T04:55:14.186Z,0.90
2023-01-03T04:56:15.083Z,1.10
2023-01-03T04:57:15.933Z,1.10
2023-01-03T04:58:16.825Z,88.60
2023-01-03T04:59:17.726Z,74.30
2023-01-03T05:00:18.585Z,73.60
2023-01-03T05:01:19.685Z,18.90
2023-01-03T05:02:20.362Z,14.40
2023-01-03T05:03:27.461Z,4.40
2023-01-03T05:04:22.798Z,2.30
2023-01-03T05:05:22.632Z,1.60
2023-01-03T05:06:23.508Z,1.40
2023-01-03T05:07:24.378Z,1.30
2023-01-03T05:08:25.280Z,1.10
2023-01-03T05:09:26.154Z,1.00
2023-01-03T05:10:27.066Z,1.00
2023-01-03T05:11:27.935Z,1.00
2023-01-03T05:12:28.797Z,1.10
2023-01-03T05:13:29.695Z,1.10
2023-01-03T05:14:30.594Z,1.10
2023-01-03T05:15:31.446Z,1.50
2023-01-03T05:16:32.404Z,1.30
2023-01-03T05:17:33.280Z,1.10
2023-01-03T05:18:34.173Z,1.10
2023-01-03T05:19:35.043Z,1.20
2023-01-03T05:20:35.924Z,1.10
2023-01-03T05:21:36.804Z,1.00
2023-01-03T05:22:37.693Z,1.40
2023-01-03T05:23:38.602Z,1.30
2023-01-03T05:24:39.498Z,1.30
2023-01-03T05:25:40.350Z,1.70
2023-01-03T05:26:41.231Z,1.50
2023-01-03T05:27:42.101Z,1.50
2023-01-03T05:28:42.993Z,1.60
2023-01-03T05:29:43.988Z,2.00
2023-01-03T05:30:44.793Z,1.90
2023-01-03T05:31:45.728Z,1.30
2023-01-03T05:32:46.610Z,1.20
2023-01-03T05:33:47.498Z,1.30
2023-01-03T05:34:48.372Z,1.40
2023-01-03T05:35:49.248Z,1.60
2023-01-03T05:36:50.127Z,1.40
2023-01-03T05:37:50.998Z,1.80
2023-01-03T05:38:51.888Z,1.40
2023-01-03T05:39:52.760Z,1.80
2023-01-03T05:40:53.676Z,1.90
2023-01-03T05:41:54.517Z,1.80
2023-01-03T05:42:55.394Z,3.10
2023-01-03T05:43:56.304Z,1.70
2023-01-03T05:44:57.297Z,1.70
2023-01-03T05:45:58.168Z,3.00
2023-01-03T05:46:59.025Z,2.30
2023-01-03T05:47:59.915Z,1.40
2023-01-03T05:49:00.806Z,1.50
2023-01-03T05:50:01.711Z,1.60
2023-01-03T05:51:02.555Z,2.10
2023-01-03T05:52:03.426Z,1.80
2023-01-03T05:53:04.308Z,1.50
2023-01-03T05:54:05.192Z,1.40
2023-01-03T05:55:06.078Z,1.40
2023-01-03T05:56:06.950Z,1.40
2023-01-03T05:57:07.824Z,1.70
2023-01-03T05:58:08.697Z,1.50
2023-01-03T05:59:09.596Z,1.60
2023-01-03T06:00:10.489Z,1.50
2023-01-03T06:01:11.361Z,1.50
2023-01-03T06:02:12.385Z,1.30
2023-01-03T06:03:12.824Z,1.10
2023-01-03T06:04:13.786Z,1.50
2023-01-03T06:05:14.653Z,1.10
2023-01-03T06:06:15.515Z,1.20
2023-01-03T06:07:16.396Z,1.20
2023-01-03T06:08:17.287Z,1.00
2023-01-03T06:09:18.169Z,1.20
2023-01-03T06:10:19.031Z,1.00
2023-01-03T06:11:19.912Z,0.90
2023-01-03T06:12:20.789Z,1.10
2023-01-03T06:13:21.664Z,1.00
2023-01-03T06:14:22.548Z,1.10
2023-01-03T06:15:23.450Z,1.10
2023-01-03T06:16:25.007Z,1.30
2023-01-03T06:17:25.048Z,1.30
2023-01-03T06:18:25.913Z,1.60
2023-01-03T06:19:26.799Z,1.40
2023-01-03T06:20:27.668Z,1.50
2023-01-03T06:21:28.547Z,1.30
2023-01-03T06:22:29.420Z,1.20
2023-01-03T06:23:30.300Z,1.30
2023-01-03T06:24:31.199Z,1.30
2023-01-03T06:25:32.083Z,1.50
2023-01-03T06:26:32.967Z,1.50
2023-01-03T06:27:33.834Z,1.60
2023-01-03T06:28:34.716Z,1.70
2023-01-03T06:29:35.604Z,1.70
2023-01-03T06:30:36.537Z,1.50
2023-01-03T06:31:37.369Z,1.60
2023-01-03T06:32:38.248Z,2.00
2023-01-03T06:33:39.121Z,2.30
2023-01-03T06:34:40.004Z,2.00
2023-01-03T06:35:40.916Z,2.00
2023-01-03T06:36:41.779Z,1.50
2023-01-03T06:37:42.638Z,1.00
2023-01-03T06:38:43.512Z,1.20
2023-01-03T06:39:44.607Z,1.30
2023-01-03T06:40:45.885Z,1.40
2023-01-03T06:41:45.802Z,1.20
2023-01-03T06:42:46.691Z,1.40
2023-01-03T06:43:47.586Z,1.20
2023-01-03T06:44:48.459Z,1.00
2023-01-03T06:45:49.342Z,1.00
2023-01-03T06:46:50.268Z,1.10
2023-01-03T06:47:51.135Z,1.00
2023-01-03T06:48:51.976Z,1.00
2023-01-03T06:49:52.805Z,0.90
2023-01-03T06:50:53.630Z,1.00
2023-01-03T06:51:54.451Z,1.10
2023-01-03T06:52:55.334Z,1.20
2023-01-03T06:53:56.222Z,1.20
2023-01-03T06:54:57.097Z,1.20
2023-01-03T06:55:57.936Z,1.60
2023-01-03T06:56:58.753Z,1.30
2023-01-03T06:57:59.589Z,1.70
2023-01-03T06:59:00.401Z,1.40
2023-01-03T07:00:01.236Z,1.40
2023-01-03T07:01:02.169Z,1.20
2023-01-03T07:02:03.079Z,1.20
2023-01-03T07:03:10.698Z,1.10
2023-01-03T07:04:05.303Z,1.20
2023-01-03T07:05:05.196Z,1.10
2023-01-03T07:06:06.080Z,1.30
2023-01-03T07:07:06.897Z,1.30
2023-01-03T07:08:07.727Z,1.30
2023-01-03T07:09:08.549Z,1.20
2023-01-03T07:10:09.445Z,1.30
2023-01-03T07:11:10.271Z,1.20
2023-01-03T07:12:11.099Z,1.50
2023-01-03T07:13:11.921Z,1.70
2023-01-03T07:14:12.759Z,1.80
2023-01-03T07:15:13.583Z,1.70
2023-01-03T07:16:14.556Z,1.80
2023-01-03T07:17:15.379Z,1.80
2023-01-03T07:18:16.183Z,1.60
2023-01-03T07:19:17.023Z,1.30
2023-01-03T07:20:17.842Z,1.40
2023-01-03T07:21:18.671Z,1.50
2023-01-03T07:22:19.496Z,1.40
2023-01-03T07:23:20.332Z,1.90
2023-01-03T07:24:21.167Z,2.00
2023-01-03T07:25:22.037Z,1.90
2023-01-03T07:26:22.860Z,1.90
2023-01-03T07:27:23.684Z,1.70
2023-01-03T07:28:24.534Z,1.70
2023-01-03T07:29:25.335Z,1.80
2023-01-03T07:30:26.165Z,1.90
2023-01-03T07:31:27.142Z,1.90
2023-01-03T07:32:27.936Z,1.90
2023-01-03T07:33:28.761Z,2.00
2023-01-03T07:34:29.581Z,1.90
2023-01-03T07:35:30.423Z,2.70
2023-01-03T07:36:31.238Z,2.30
2023-01-03T07:37:32.064Z,2.10
2023-01-03T07:38:32.883Z,2.00
2023-01-03T07:39:33.711Z,2.10
2023-01-03T07:40:34.541Z,2.00
2023-01-03T07:41:35.367Z,1.80
2023-01-03T07:42:36.188Z,1.80
2023-01-03T07:43:37.043Z,2.10
2023-01-03T07:44:37.830Z,2.10
2023-01-03T07:45:38.667Z,3.40
2023-01-03T07:46:39.589Z,3.20
2023-01-03T07:47:40.413Z,2.50
2023-01-03T07:48:41.237Z,2.20
2023-01-03T07:49:42.070Z,1.70
2023-01-03T07:50:42.886Z,1.80
2023-01-03T07:51:43.723Z,1.80
2023-01-03T07:52:44.538Z,2.10
2023-01-03T07:53:45.358Z,2.00
2023-01-03T07:54:46.180Z,1.80
2023-01-03T07:55:47.037Z,1.80
2023-01-03T07:56:47.848Z,1.90
2023-01-03T07:57:48.664Z,1.90
2023-01-03T07:58:49.490Z,2.10
2023-01-03T07:59:50.320Z,2.40
2023-01-03T08:00:51.148Z,2.20
2023-01-03T08:01:52.110Z,2.20
2023-01-03T08:02:53.196Z,2.40
2023-01-03T08:03:53.586Z,2.20
2023-01-03T08:04:54.501Z,2.60
2023-01-03T08:05:55.278Z,2.10
2023-01-03T08:06:56.097Z,2.30
2023-01-03T08:07:56.933Z,2.10
2023-01-03T08:09:02.560Z,2.00
2023-01-03T08:09:59.461Z,2.10
2023-01-03T08:10:59.286Z,2.00
2023-01-03T08:12:00.133Z,1.70
2023-01-03T08:13:00.929Z,1.40
2023-01-03T08:14:01.756Z,1.60
2023-01-03T08:15:02.585Z,1.60
2023-01-03T08:16:03.453Z,2.40
2023-01-03T08:17:04.312Z,2.30
2023-01-03T08:18:05.119Z,2.70
2023-01-03T08:19:05.940Z,2.80
2023-01-03T08:20:06.762Z,3.30
2023-01-03T08:21:07.594Z,3.50
2023-01-03T08:22:08.421Z,3.80
2023-01-03T08:23:09.256Z,3.70
2023-01-03T08:24:10.080Z,3.90
2023-01-03T08:25:10.903Z,3.70
2023-01-03T08:26:11.745Z,2.90
2023-01-03T08:27:12.571Z,3.00
2023-01-03T08:28:13.409Z,2.60
2023-01-03T08:29:14.229Z,2.80
2023-01-03T08:30:15.057Z,2.60
2023-01-03T08:31:15.910Z,2.40
2023-01-03T08:32:16.741Z,2.20
2023-01-03T08:33:17.538Z,2.50
2023-01-03T08:34:23.635Z,3.00
2023-01-03T08:35:20.072Z,2.70
2023-01-03T08:36:19.909Z,2.70
2023-01-03T08:37:20.727Z,2.40
2023-01-03T08:38:21.568Z,2.00
2023-01-03T08:39:22.386Z,3.40
2023-01-03T08:40:23.219Z,6.30
2023-01-03T08:41:24.061Z,3.50
2023-01-03T08:42:24.879Z,2.80
2023-01-03T08:43:25.700Z,2.00
2023-01-03T08:44:26.525Z,1.80
2023-01-03T08:45:27.353Z,1.50
2023-01-03T08:46:28.228Z,1.90
2023-01-03T08:47:29.037Z,2.10
2023-01-03T08:48:29.827Z,2.10
2023-01-03T08:49:30.646Z,1.90
2023-01-03T08:50:31.476Z,2.10
2023-01-03T08:51:32.307Z,1.90
2023-01-03T08:52:35.280Z,2.00
2023-01-03T08:53:33.788Z,2.00
2023-01-03T08:54:34.615Z,2.20
2023-01-03T08:55:35.444Z,3.50
2023-01-03T08:56:36.285Z,3.00
2023-01-03T08:57:37.109Z,3.00
2023-01-03T08:58:37.957Z,2.90
2023-01-03T08:59:38.771Z,2.60
2023-01-03T09:00:39.578Z,2.70
2023-01-03T09:01:40.634Z,2.50
2023-01-03T09:02:41.279Z,3.30
2023-01-03T09:03:41.879Z,3.40
2023-01-03T09:04:42.211Z,4.20
2023-01-03T09:05:43.036Z,4.30
2023-01-03T09:06:43.894Z,3.80
2023-01-03T09:07:44.688Z,4.60
2023-01-03T09:08:45.564Z,7.00
2023-01-03T09:09:46.471Z,6.40
2023-01-03T09:10:47.923Z,6.20
2023-01-03T09:11:47.846Z,8.30
2023-01-03T09:12:48.702Z,8.00
2023-01-03T09:13:49.532Z,8.30
2023-01-03T09:14:50.430Z,8.30
2023-01-03T09:15:51.298Z,9.80
2023-01-03T09:16:52.254Z,9.20
2023-01-03T09:17:53.132Z,9.00
2023-01-03T09:18:53.935Z,9.20
2023-01-03T09:19:54.749Z,8.50
2023-01-03T09:20:55.581Z,7.70
2023-01-03T09:21:56.403Z,7.80
2023-01-03T09:22:57.229Z,8.00
2023-01-03T09:23:58.049Z,8.20
2023-01-03T09:24:58.878Z,8.10
2023-01-03T09:25:59.699Z,8.20
2023-01-03T09:27:00.533Z,7.80
2023-01-03T09:28:01.367Z,8.00
2023-01-03T09:29:02.194Z,8.20
2023-01-03T09:30:03.016Z,10.20
2023-01-03T09:31:03.964Z,10.90
2023-01-03T09:32:04.888Z,10.40
2023-01-03T09:33:05.739Z,8.50
2023-01-03T09:34:06.541Z,6.30
2023-01-03T09:35:07.380Z,4.80
2023-01-03T09:36:08.188Z,4.20
2023-01-03T09:37:09.017Z,3.90
2023-01-03T09:38:09.835Z,3.90
2023-01-03T09:39:10.663Z,4.30
2023-01-03T09:40:11.518Z,4.20
2023-01-03T09:41:12.368Z,3.80
2023-01-03T09:42:13.204Z,4.10
2023-01-03T09:43:15.615Z,3.90
2023-01-03T09:44:14.733Z,4.00
2023-01-03T09:45:15.567Z,3.70
2023-01-03T09:46:16.449Z,4.00
2023-01-03T09:47:17.306Z,4.20
2023-01-03T09:48:18.119Z,3.70
2023-01-03T09:49:18.925Z,4.00
2023-01-03T09:50:34.985Z,3.70
2023-01-03T09:51:27.677Z,4.50
2023-01-03T09:52:22.202Z,4.30
2023-01-03T09:53:22.051Z,4.30
2023-01-03T09:54:22.869Z,5.00
2023-01-03T09:55:23.696Z,4.60
2023-01-03T09:56:24.525Z,5.20
2023-01-03T09:57:28.621Z,5.90
2023-01-03T09:58:26.038Z,5.50
2023-01-03T09:59:26.867Z,5.50
2023-01-03T10:00:27.686Z,8.90
2023-01-03T10:01:28.616Z,6.90
2023-01-03T10:02:29.651Z,6.70
2023-01-03T10:03:30.124Z,6.60
2023-01-03T10:04:30.989Z,4.40
2023-01-03T10:05:31.821Z,5.60
2023-01-03T10:06:32.655Z,4.30
2023-01-03T10:07:33.502Z,3.00
2023-01-03T10:08:34.316Z,2.40
2023-01-03T10:09:35.167Z,2.20
2023-01-03T10:10:35.964Z,1.60
2023-01-03T10:11:36.791Z,1.70
2023-01-03T10:12:37.680Z,1.50
2023-01-03T10:13:38.495Z,1.40
2023-01-03T10:14:39.352Z,1.20
2023-01-03T10:15:40.145Z,1.20
2023-01-03T10:16:41.070Z,1.20
2023-01-03T10:17:41.932Z,1.20
2023-01-03T10:18:42.771Z,1.20
2023-01-03T10:19:43.573Z,1.30
2023-01-03T10:20:44.400Z,1.20
2023-01-03T10:21:45.229Z,1.00
2023-01-03T10:22:46.053Z,1.10
2023-01-03T10:23:46.893Z,1.30
2023-01-03T10:24:47.714Z,1.70
2023-01-03T10:25:48.540Z,1.40
2023-01-03T10:26:49.361Z,1.40
2023-01-03T10:27:50.196Z,1.50
2023-01-03T10:28:51.021Z,1.70
2023-01-03T10:29:51.845Z,1.30
2023-01-03T10:30:59.496Z,1.20
2023-01-03T10:31:54.489Z,1.20
2023-01-03T10:32:54.275Z,1.00
2023-01-03T10:33:55.132Z,1.10
2023-01-03T10:34:55.922Z,1.20
2023-01-03T10:35:56.769Z,0.90
2023-01-03T10:36:57.590Z,1.30
2023-01-03T10:37:58.433Z,2.60
2023-01-03T10:38:59.240Z,2.60
2023-01-03T10:40:00.109Z,2.60
2023-01-03T10:41:00.902Z,1.80
2023-01-03T10:42:01.724Z,1.60
2023-01-03T10:43:02.551Z,1.30
2023-01-03T10:44:03.421Z,1.10
2023-01-03T10:45:04.201Z,1.00
2023-01-03T10:46:05.064Z,1.10
2023-01-03T10:47:05.845Z,1.10
2023-01-03T10:48:06.715Z,1.40
2023-01-03T10:50:09.242Z,2.40
2023-01-03T10:51:09.060Z,2.20
2023-01-03T10:52:09.896Z,2.30
2023-01-03T10:53:10.721Z,2.30
2023-01-03T10:54:11.540Z,2.20
2023-01-03T10:55:12.362Z,2.40
2023-01-03T10:56:13.191Z,2.60
2023-01-03T10:57:14.007Z,2.20
2023-01-03T10:58:14.860Z,2.20
2023-01-03T10:59:15.675Z,2.20
2023-01-03T11:00:16.499Z,2.30
2023-01-03T11:01:17.482Z,2.30
2023-01-03T11:02:18.456Z,1.90
2023-01-03T11:03:18.878Z,2.20
2023-01-03T11:04:19.736Z,2.60
2023-01-03T11:05:20.510Z,3.60
2023-01-03T11:06:21.341Z,14.70
2023-01-03T11:07:22.159Z,13.50
2023-01-03T11:08:23.005Z,13.30
2023-01-03T11:09:23.816Z,12.60
2023-01-03T11:10:24.650Z,11.00
2023-01-03T11:11:25.470Z,6.10
2023-01-03T11:12:26.297Z,5.80
2023-01-03T11:13:27.129Z,5.20
2023-01-03T11:14:27.972Z,4.40
2023-01-03T11:15:32.619Z,4.20
2023-01-03T11:16:30.598Z,1.90
2023-01-03T11:17:30.418Z,1.40
2023-01-03T11:18:31.693Z,1.60
2023-01-03T11:19:32.037Z,4.50
2023-01-03T11:20:32.843Z,3.20
2023-01-03T11:21:33.659Z,2.50
2023-01-03T11:22:37.422Z,2.20
2023-01-03T11:23:35.268Z,1.70
2023-01-03T11:24:36.094Z,1.80
2023-01-03T11:25:36.925Z,1.60
2023-01-03T11:26:37.751Z,1.30
2023-01-03T11:27:38.568Z,1.40
2023-01-03T11:28:39.189Z,1.80
2023-01-03T11:29:39.973Z,4.70
2023-01-03T11:30:40.799Z,4.10
2023-01-03T11:31:41.654Z,3.80
2023-01-03T11:32:42.445Z,4.90
2023-01-03T11:33:43.273Z,2.00
2023-01-03T11:35:20.621Z,1.10
2023-01-03T11:35:45.814Z,2.30
2023-01-03T11:36:45.658Z,1.30
2023-01-03T11:37:46.471Z,2.50
2023-01-03T11:38:47.301Z,1.50
2023-01-03T11:39:48.126Z,1.50
2023-01-03T11:40:48.955Z,1.40
2023-01-03T11:41:49.783Z,1.90
2023-01-03T11:42:50.602Z,2.50
2023-01-03T11:43:51.437Z,1.60
2023-01-03T11:44:52.269Z,1.50
2023-01-03T11:45:53.141Z,1.20
2023-01-03T11:46:53.974Z,1.20
2023-01-03T11:47:54.767Z,1.00
2023-01-03T11:48:55.619Z,0.90
2023-01-03T11:49:56.449Z,0.70
2023-01-03T11:50:57.243Z,0.80
2023-01-03T11:51:58.071Z,0.80
2023-01-03T11:52:58.887Z,0.80
2023-01-03T11:53:59.725Z,0.70
2023-01-03T11:55:00.555Z,0.60
2023-01-03T11:56:01.382Z,0.70
2023-01-03T11:57:02.202Z,0.60
2023-01-03T11:58:03.042Z,0.70
2023-01-03T11:59:03.901Z,0.70
2023-01-03T12:00:04.718Z,0.70
2023-01-03T12:01:05.602Z,0.70
2023-01-03T12:02:06.683Z,0.60
2023-01-03T12:03:07.234Z,0.70
2023-01-03T12:04:07.788Z,0.70
2023-01-03T12:05:08.645Z,0.70
2023-01-03T12:06:09.471Z,0.60
2023-01-03T12:08:11.976Z,3.70
2023-01-03T12:09:11.824Z,1.00
2023-01-03T12:10:12.640Z,1.60
2023-01-03T12:11:13.486Z,0.90
2023-01-03T12:12:14.294Z,0.90
2023-01-03T12:13:15.119Z,0.80
2023-01-03T12:14:15.952Z,11.50
2023-01-03T12:15:16.770Z,9.20
2023-01-03T12:16:17.695Z,7.50
2023-01-03T12:17:18.516Z,4.60
2023-01-03T12:18:19.343Z,3.80
2023-01-03T12:19:20.185Z,3.60
2023-01-03T12:20:21.041Z,2.00
2023-01-03T12:21:21.836Z,11.50
2023-01-03T12:22:22.674Z,3.10
2023-01-03T12:23:23.475Z,4.30
2023-01-03T12:24:24.313Z,3.00
2023-01-03T12:25:25.152Z,2.00
2023-01-03T12:26:25.957Z,1.00
2023-01-03T12:27:26.784Z,1.40
2023-01-03T12:28:27.609Z,4.20
2023-01-03T12:29:28.431Z,3.40
2023-01-03T12:30:29.261Z,1.80
2023-01-03T12:31:32.084Z,1.50
2023-01-03T12:32:30.773Z,1.00
2023-01-03T12:33:31.591Z,0.80
2023-01-03T12:34:32.439Z,0.80
2023-01-03T12:35:33.272Z,1.30
2023-01-03T12:36:34.078Z,1.40
2023-01-03T12:37:34.895Z,1.20
2023-01-03T12:38:35.739Z,1.20
2023-01-03T12:39:36.587Z,0.90
2023-01-03T12:40:37.380Z,0.80
2023-01-03T12:41:38.213Z,0.90
2023-01-03T12:42:39.030Z,1.30
2023-01-03T12:43:39.852Z,1.10
2023-01-03T12:44:40.687Z,1.10
2023-01-03T12:45:41.500Z,0.80
2023-01-03T12:46:42.405Z,0.80
2023-01-03T12:47:43.197Z,0.70
2023-01-03T12:48:44.015Z,1.00
2023-01-03T12:49:44.850Z,1.00
2023-01-03T12:50:45.696Z,0.90
2023-01-03T12:51:46.492Z,0.80
2023-01-03T12:52:47.325Z,0.80
2023-01-03T12:53:48.137Z,0.70
2023-01-03T12:54:48.973Z,0.60
2023-01-03T12:55:49.801Z,0.80
2023-01-03T12:56:50.636Z,0.80
2023-01-03T12:57:51.459Z,0.70
2023-01-03T12:58:52.277Z,0.80
2023-01-03T12:59:53.108Z,0.80
2023-01-03T13:00:53.930Z,0.70
2023-01-03T13:01:54.929Z,0.70
2023-01-03T13:02:55.487Z,0.60
2023-01-03T13:03:55.947Z,0.70
2023-01-03T13:04:56.721Z,0.90
2023-01-03T13:05:57.560Z,1.40
2023-01-03T13:06:58.375Z,1.30
2023-01-03T13:07:59.185Z,1.00
2023-01-03T13:09:00.013Z,0.90
2023-01-03T13:10:01.669Z,0.80
2023-01-03T13:11:01.548Z,0.80
2023-01-03T13:12:02.376Z,0.90
2023-01-03T13:13:03.193Z,0.80
2023-01-03T13:14:04.017Z,0.80
2023-01-03T13:15:04.858Z,0.90
2023-01-03T13:16:05.764Z,0.80
2023-01-03T13:17:06.554Z,1.10
2023-01-03T13:18:07.375Z,0.90
2023-01-03T13:19:08.202Z,0.80
2023-01-03T13:20:09.082Z,0.70
2023-01-03T13:21:10.013Z,0.80
2023-01-03T13:22:10.776Z,0.80
2023-01-03T13:23:11.600Z,0.90
2023-01-03T13:24:12.473Z,1.40
2023-01-03T13:25:13.270Z,1.30
2023-01-03T13:26:14.089Z,1.40
2023-01-03T13:27:14.922Z,1.30
2023-01-03T13:28:15.761Z,1.40
2023-01-03T13:29:16.575Z,1.20
2023-01-03T13:30:17.407Z,0.90